sensor_id;sensor_type;location;lat;lon;timestamp;temperature;humidity
42037;DHT22;30340;52.004;5.908;2023-02-04T00:00:21;9.10;86.60
42037;DHT22;30340;52.004;5.908;2023-02-04T00:02:48;9.20;86.70
42037;DHT22;30340;52.004;5.908;2023-02-04T00:05:17;9.20;86.70
42037;DHT22;30340;52.004;5.908;2023-02-04T00:07:43;9.10;86.70
42037;DHT22;30340;52.004;5.908;2023-02-04T00:10:09;9.10;86.70
42037;DHT22;30340;52.004;5.908;2023-02-04T00:12:35;9.20;86.90
42037;DHT22;30340;52.004;5.908;2023-02-04T00:15:01;9.20;86.90
42037;DHT22;30340;52.004;5.908;2023-02-04T00:17:26;9.10;86.70
42037;DHT22;30340;52.004;5.908;2023-02-04T00:19:52;9.10;86.80
42037;DHT22;30340;52.004;5.908;2023-02-04T00:22:17;9.10;86.80
42037;DHT22;30340;52.004;5.908;2023-02-04T00:24:44;9.10;86.80
42037;DHT22;30340;52.004;5.908;2023-02-04T00:27:14;9.20;86.80
42037;DHT22;30340;52.004;5.908;2023-02-04T00:29:39;9.20;86.80
42037;DHT22;30340;52.004;5.908;2023-02-04T00:32:05;9.20;86.70
42037;DHT22;30340;52.004;5.908;2023-02-04T00:34:30;9.20;86.70
42037;DHT22;30340;52.004;5.908;2023-02-04T00:36:56;9.10;86.70
42037;DHT22;30340;52.004;5.908;2023-02-04T00:39:22;9.10;86.80
42037;DHT22;30340;52.004;5.908;2023-02-04T00:41:47;9.10;86.80
42037;DHT22;30340;52.004;5.908;2023-02-04T00:44:13;9.10;86.90
42037;DHT22;30340;52.004;5.908;2023-02-04T00:46:42;9.10;86.80
42037;DHT22;30340;52.004;5.908;2023-02-04T00:49:08;9.10;86.90
42037;DHT22;30340;52.004;5.908;2023-02-04T00:51:36;9.10;86.90
42037;DHT22;30340;52.004;5.908;2023-02-04T00:54:02;9.10;86.90
42037;DHT22;30340;52.004;5.908;2023-02-04T00:56:28;9.10;86.90
42037;DHT22;30340;52.004;5.908;2023-02-04T00:58:54;9.10;86.90
42037;DHT22;30340;52.004;5.908;2023-02-04T01:01:19;9.10;86.90
42037;DHT22;30340;52.004;5.908;2023-02-04T01:03:45;9.10;86.90
42037;DHT22;30340;52.004;5.908;2023-02-04T01:06:10;9.10;86.90
42037;DHT22;30340;52.004;5.908;2023-02-04T01:08:36;9.10;86.90
42037;DHT22;30340;52.004;5.908;2023-02-04T01:11:02;9.10;86.90
42037;DHT22;30340;52.004;5.908;2023-02-04T01:13:27;9.10;86.90
42037;DHT22;30340;52.004;5.908;2023-02-04T01:15:53;9.00;86.80
42037;DHT22;30340;52.004;5.908;2023-02-04T01:18:18;9.00;86.90
42037;DHT22;30340;52.004;5.908;2023-02-04T01:20:44;9.00;87.10
42037;DHT22;30340;52.004;5.908;2023-02-04T01:23:09;9.00;87.10
42037;DHT22;30340;52.004;5.908;2023-02-04T01:25:35;9.00;87.20
42037;DHT22;30340;52.004;5.908;2023-02-04T01:28:00;8.90;87.10
42037;DHT22;30340;52.004;5.908;2023-02-04T01:30:26;8.90;87.20
42037;DHT22;30340;52.004;5.908;2023-02-04T01:32:52;8.90;87.30
42037;DHT22;30340;52.004;5.908;2023-02-04T01:35:17;8.90;87.30
42037;DHT22;30340;52.004;5.908;2023-02-04T01:37:43;8.90;87.30
42037;DHT22;30340;52.004;5.908;2023-02-04T01:40:09;8.80;87.30
42037;DHT22;30340;52.004;5.908;2023-02-04T01:42:35;8.80;87.40
42037;DHT22;30340;52.004;5.908;2023-02-04T01:45:02;8.80;87.40
42037;DHT22;30340;52.004;5.908;2023-02-04T01:47:31;8.80;87.50
42037;DHT22;30340;52.004;5.908;2023-02-04T01:49:56;8.80;87.50
42037;DHT22;30340;52.004;5.908;2023-02-04T01:52:22;8.80;87.50
42037;DHT22;30340;52.004;5.908;2023-02-04T01:54:48;8.70;87.40
42037;DHT22;30340;52.004;5.908;2023-02-04T01:57:15;8.70;87.50
42037;DHT22;30340;52.004;5.908;2023-02-04T01:59:45;8.60;87.50
42037;DHT22;30340;52.004;5.908;2023-02-04T02:02:40;8.60;87.50
42037;DHT22;30340;52.004;5.908;2023-02-04T02:05:09;8.60;87.60
42037;DHT22;30340;52.004;5.908;2023-02-04T02:07:35;8.60;87.50
42037;DHT22;30340;52.004;5.908;2023-02-04T02:10:02;8.60;87.60
42037;DHT22;30340;52.004;5.908;2023-02-04T02:12:28;8.60;87.50
42037;DHT22;30340;52.004;5.908;2023-02-04T02:14:54;8.60;87.50
42037;DHT22;30340;52.004;5.908;2023-02-04T02:17:19;8.60;87.50
42037;DHT22;30340;52.004;5.908;2023-02-04T02:19:45;8.50;87.60
42037;DHT22;30340;52.004;5.908;2023-02-04T02:24:49;8.50;87.70
42037;DHT22;30340;52.004;5.908;2023-02-04T02:27:15;8.50;87.60
42037;DHT22;30340;52.004;5.908;2023-02-04T02:29:41;8.50;87.70
42037;DHT22;30340;52.004;5.908;2023-02-04T02:32:08;8.50;87.70
42037;DHT22;30340;52.004;5.908;2023-02-04T02:34:35;8.40;87.70
42037;DHT22;30340;52.004;5.908;2023-02-04T02:37:02;8.40;87.90
42037;DHT22;30340;52.004;5.908;2023-02-04T02:39:27;8.40;88.00
42037;DHT22;30340;52.004;5.908;2023-02-04T02:41:55;8.40;88.00
42037;DHT22;30340;52.004;5.908;2023-02-04T02:44:21;8.30;88.10
42037;DHT22;30340;52.004;5.908;2023-02-04T02:46:47;8.30;88.10
42037;DHT22;30340;52.004;5.908;2023-02-04T02:49:15;8.30;88.00
42037;DHT22;30340;52.004;5.908;2023-02-04T02:51:42;8.30;88.10
42037;DHT22;30340;52.004;5.908;2023-02-04T02:54:19;8.20;88.10
42037;DHT22;30340;52.004;5.908;2023-02-04T02:56:45;8.30;88.20
42037;DHT22;30340;52.004;5.908;2023-02-04T02:59:15;8.20;88.30
42037;DHT22;30340;52.004;5.908;2023-02-04T03:01:42;8.20;88.40
42037;DHT22;30340;52.004;5.908;2023-02-04T03:04:08;8.10;88.50
42037;DHT22;30340;52.004;5.908;2023-02-04T03:06:35;8.00;88.60
42037;DHT22;30340;52.004;5.908;2023-02-04T03:09:00;8.00;88.70
42037;DHT22;30340;52.004;5.908;2023-02-04T03:11:26;8.00;88.70
42037;DHT22;30340;52.004;5.908;2023-02-04T03:13:55;8.00;88.70
42037;DHT22;30340;52.004;5.908;2023-02-04T03:16:21;8.00;88.70
42037;DHT22;30340;52.004;5.908;2023-02-04T03:18:47;8.00;88.40
42037;DHT22;30340;52.004;5.908;2023-02-04T03:21:13;7.90;88.50
42037;DHT22;30340;52.004;5.908;2023-02-04T03:23:38;7.90;88.70
42037;DHT22;30340;52.004;5.908;2023-02-04T03:26:04;7.90;88.70
42037;DHT22;30340;52.004;5.908;2023-02-04T03:28:30;7.90;89.10
42037;DHT22;30340;52.004;5.908;2023-02-04T03:30:56;7.90;89.10
42037;DHT22;30340;52.004;5.908;2023-02-04T03:33:23;7.80;88.40
42037;DHT22;30340;52.004;5.908;2023-02-04T03:35:51;7.80;88.40
42037;DHT22;30340;52.004;5.908;2023-02-04T03:38:17;7.80;88.30
42037;DHT22;30340;52.004;5.908;2023-02-04T03:40:43;7.80;88.40
42037;DHT22;30340;52.004;5.908;2023-02-04T03:43:09;7.80;88.40
42037;DHT22;30340;52.004;5.908;2023-02-04T03:45:34;7.80;88.40
42037;DHT22;30340;52.004;5.908;2023-02-04T03:48:00;7.70;88.30
42037;DHT22;30340;52.004;5.908;2023-02-04T03:50:25;7.70;88.50
42037;DHT22;30340;52.004;5.908;2023-02-04T03:52:51;7.70;88.60
42037;DHT22;30340;52.004;5.908;2023-02-04T03:55:18;7.70;88.60
42037;DHT22;30340;52.004;5.908;2023-02-04T03:57:44;7.70;88.60
42037;DHT22;30340;52.004;5.908;2023-02-04T04:00:10;7.60;88.70
42037;DHT22;30340;52.004;5.908;2023-02-04T04:02:36;7.60;88.70
42037;DHT22;30340;52.004;5.908;2023-02-04T04:05:01;7.50;88.70
42037;DHT22;30340;52.004;5.908;2023-02-04T04:07:27;7.50;88.70
42037;DHT22;30340;52.004;5.908;2023-02-04T04:09:52;7.50;88.70
42037;DHT22;30340;52.004;5.908;2023-02-04T04:12:18;7.50;88.70
42037;DHT22;30340;52.004;5.908;2023-02-04T04:14:43;7.50;88.80
42037;DHT22;30340;52.004;5.908;2023-02-04T04:17:09;7.40;88.80
42037;DHT22;30340;52.004;5.908;2023-02-04T04:19:35;7.40;88.80
42037;DHT22;30340;52.004;5.908;2023-02-04T04:22:00;7.40;88.80
42037;DHT22;30340;52.004;5.908;2023-02-04T04:24:26;7.30;88.90
42037;DHT22;30340;52.004;5.908;2023-02-04T04:26:51;7.40;89.00
42037;DHT22;30340;52.004;5.908;2023-02-04T04:29:17;7.40;89.00
42037;DHT22;30340;52.004;5.908;2023-02-04T04:31:42;7.40;89.00
42037;DHT22;30340;52.004;5.908;2023-02-04T04:34:09;7.30;89.60
42037;DHT22;30340;52.004;5.908;2023-02-04T04:36:35;7.30;89.00
42037;DHT22;30340;52.004;5.908;2023-02-04T04:39:00;7.40;89.10
42037;DHT22;30340;52.004;5.908;2023-02-04T04:41:26;7.40;88.90
42037;DHT22;30340;52.004;5.908;2023-02-04T04:43:51;7.40;89.00
42037;DHT22;30340;52.004;5.908;2023-02-04T04:46:17;7.40;89.10
42037;DHT22;30340;52.004;5.908;2023-02-04T04:48:43;7.40;89.20
42037;DHT22;30340;52.004;5.908;2023-02-04T04:51:08;7.40;89.10
42037;DHT22;30340;52.004;5.908;2023-02-04T04:53:34;7.40;89.10
42037;DHT22;30340;52.004;5.908;2023-02-04T04:55:59;7.40;89.10
42037;DHT22;30340;52.004;5.908;2023-02-04T04:58:25;7.40;89.00
42037;DHT22;30340;52.004;5.908;2023-02-04T05:00:50;7.40;89.00
42037;DHT22;30340;52.004;5.908;2023-02-04T05:03:16;7.40;89.10
42037;DHT22;30340;52.004;5.908;2023-02-04T05:05:41;7.40;89.20
42037;DHT22;30340;52.004;5.908;2023-02-04T05:08:08;7.30;89.20
42037;DHT22;30340;52.004;5.908;2023-02-04T05:10:40;7.30;89.30
42037;DHT22;30340;52.004;5.908;2023-02-04T05:13:06;7.40;89.30
42037;DHT22;30340;52.004;5.908;2023-02-04T05:15:32;7.40;89.30
42037;DHT22;30340;52.004;5.908;2023-02-04T05:17:57;7.40;89.30
42037;DHT22;30340;52.004;5.908;2023-02-04T05:20:24;7.40;89.20
42037;DHT22;30340;52.004;5.908;2023-02-04T05:22:50;7.40;89.20
42037;DHT22;30340;52.004;5.908;2023-02-04T05:25:15;7.40;89.10
42037;DHT22;30340;52.004;5.908;2023-02-04T05:27:42;7.40;89.20
42037;DHT22;30340;52.004;5.908;2023-02-04T05:30:12;7.40;89.30
42037;DHT22;30340;52.004;5.908;2023-02-04T05:32:38;7.50;89.20
42037;DHT22;30340;52.004;5.908;2023-02-04T05:35:04;7.40;89.20
42037;DHT22;30340;52.004;5.908;2023-02-04T05:37:30;7.40;89.40
42037;DHT22;30340;52.004;5.908;2023-02-04T05:39:56;7.40;89.40
42037;DHT22;30340;52.004;5.908;2023-02-04T05:42:22;7.50;89.40
42037;DHT22;30340;52.004;5.908;2023-02-04T05:44:48;7.50;89.30
42037;DHT22;30340;52.004;5.908;2023-02-04T05:47:13;7.50;89.20
42037;DHT22;30340;52.004;5.908;2023-02-04T05:49:39;7.50;89.10
42037;DHT22;30340;52.004;5.908;2023-02-04T05:52:05;7.60;89.10
42037;DHT22;30340;52.004;5.908;2023-02-04T05:54:30;7.60;89.10
42037;DHT22;30340;52.004;5.908;2023-02-04T05:56:56;7.60;89.00
42037;DHT22;30340;52.004;5.908;2023-02-04T05:59:22;7.60;88.90
42037;DHT22;30340;52.004;5.908;2023-02-04T06:01:47;7.60;88.90
42037;DHT22;30340;52.004;5.908;2023-02-04T06:04:13;7.60;89.00
42037;DHT22;30340;52.004;5.908;2023-02-04T06:06:41;7.60;89.00
42037;DHT22;30340;52.004;5.908;2023-02-04T06:09:07;7.60;88.90
42037;DHT22;30340;52.004;5.908;2023-02-04T06:11:32;7.60;89.00
42037;DHT22;30340;52.004;5.908;2023-02-04T06:13:58;7.60;89.10
42037;DHT22;30340;52.004;5.908;2023-02-04T06:16:23;7.70;89.10
42037;DHT22;30340;52.004;5.908;2023-02-04T06:18:49;7.70;89.00
42037;DHT22;30340;52.004;5.908;2023-02-04T06:21:15;7.70;88.90
42037;DHT22;30340;52.004;5.908;2023-02-04T06:23:40;7.70;88.90
42037;DHT22;30340;52.004;5.908;2023-02-04T06:26:06;7.70;88.90
42037;DHT22;30340;52.004;5.908;2023-02-04T06:28:31;7.70;88.80
42037;DHT22;30340;52.004;5.908;2023-02-04T06:30:57;7.70;88.70
42037;DHT22;30340;52.004;5.908;2023-02-04T06:33:22;7.80;88.80
42037;DHT22;30340;52.004;5.908;2023-02-04T06:35:48;7.80;88.60
42037;DHT22;30340;52.004;5.908;2023-02-04T06:38:14;7.70;88.60
42037;DHT22;30340;52.004;5.908;2023-02-04T06:40:40;7.80;88.70
42037;DHT22;30340;52.004;5.908;2023-02-04T06:43:05;7.80;88.80
42037;DHT22;30340;52.004;5.908;2023-02-04T06:45:31;7.80;88.80
42037;DHT22;30340;52.004;5.908;2023-02-04T06:47:57;7.80;88.80
42037;DHT22;30340;52.004;5.908;2023-02-04T06:50:22;7.80;88.80
42037;DHT22;30340;52.004;5.908;2023-02-04T06:52:48;7.80;88.70
42037;DHT22;30340;52.004;5.908;2023-02-04T06:55:15;7.90;88.70
42037;DHT22;30340;52.004;5.908;2023-02-04T06:57:41;7.90;88.60
42037;DHT22;30340;52.004;5.908;2023-02-04T07:00:09;7.90;88.50
42037;DHT22;30340;52.004;5.908;2023-02-04T07:02:35;7.90;88.60
42037;DHT22;30340;52.004;5.908;2023-02-04T07:05:02;7.90;88.60
42037;DHT22;30340;52.004;5.908;2023-02-04T07:07:28;7.90;88.70
42037;DHT22;30340;52.004;5.908;2023-02-04T07:09:53;7.80;88.70
42037;DHT22;30340;52.004;5.908;2023-02-04T07:12:19;7.80;88.80
42037;DHT22;30340;52.004;5.908;2023-02-04T07:14:45;7.80;88.90
42037;DHT22;30340;52.004;5.908;2023-02-04T07:17:10;7.80;88.90
42037;DHT22;30340;52.004;5.908;2023-02-04T07:19:36;7.80;88.90
42037;DHT22;30340;52.004;5.908;2023-02-04T07:22:02;7.80;88.90
42037;DHT22;30340;52.004;5.908;2023-02-04T07:24:28;7.80;89.00
42037;DHT22;30340;52.004;5.908;2023-02-04T07:26:53;7.80;89.00
42037;DHT22;30340;52.004;5.908;2023-02-04T07:29:19;7.80;89.10
42037;DHT22;30340;52.004;5.908;2023-02-04T07:31:45;7.80;89.10
42037;DHT22;30340;52.004;5.908;2023-02-04T07:34:12;7.80;89.10
42037;DHT22;30340;52.004;5.908;2023-02-04T07:36:38;7.80;89.10
42037;DHT22;30340;52.004;5.908;2023-02-04T07:39:04;7.80;89.20
42037;DHT22;30340;52.004;5.908;2023-02-04T07:41:29;7.90;89.10
42037;DHT22;30340;52.004;5.908;2023-02-04T07:43:55;7.90;89.10
42037;DHT22;30340;52.004;5.908;2023-02-04T07:46:20;7.90;89.00
42037;DHT22;30340;52.004;5.908;2023-02-04T07:48:46;7.90;89.00
42037;DHT22;30340;52.004;5.908;2023-02-04T07:51:12;7.90;89.00
42037;DHT22;30340;52.004;5.908;2023-02-04T07:53:37;8.00;89.10
42037;DHT22;30340;52.004;5.908;2023-02-04T07:56:03;8.00;89.10
42037;DHT22;30340;52.004;5.908;2023-02-04T07:58:28;8.00;89.10
42037;DHT22;30340;52.004;5.908;2023-02-04T08:00:54;8.00;89.00
42037;DHT22;30340;52.004;5.908;2023-02-04T08:03:20;8.10;89.00
42037;DHT22;30340;52.004;5.908;2023-02-04T08:05:45;8.10;88.90
42037;DHT22;30340;52.004;5.908;2023-02-04T08:08:11;8.10;88.80
42037;DHT22;30340;52.004;5.908;2023-02-04T08:10:36;8.10;88.80
42037;DHT22;30340;52.004;5.908;2023-02-04T08:13:02;8.20;88.80
42037;DHT22;30340;52.004;5.908;2023-02-04T08:15:28;8.20;88.80
42037;DHT22;30340;52.004;5.908;2023-02-04T08:17:53;8.20;88.80
42037;DHT22;30340;52.004;5.908;2023-02-04T08:20:19;8.30;88.80
42037;DHT22;30340;52.004;5.908;2023-02-04T08:22:44;8.30;88.60
42037;DHT22;30340;52.004;5.908;2023-02-04T08:25:11;8.30;88.50
42037;DHT22;30340;52.004;5.908;2023-02-04T08:27:37;8.30;88.50
42037;DHT22;30340;52.004;5.908;2023-02-04T08:30:04;8.40;88.50
42037;DHT22;30340;52.004;5.908;2023-02-04T08:32:29;8.40;88.60
42037;DHT22;30340;52.004;5.908;2023-02-04T08:34:58;8.50;88.50
42037;DHT22;30340;52.004;5.908;2023-02-04T08:37:24;8.50;88.40
42037;DHT22;30340;52.004;5.908;2023-02-04T08:39:49;8.60;88.30
42037;DHT22;30340;52.004;5.908;2023-02-04T08:42:15;8.60;88.20
42037;DHT22;30340;52.004;5.908;2023-02-04T08:44:41;8.60;88.10
42037;DHT22;30340;52.004;5.908;2023-02-04T08:47:08;8.70;88.20
42037;DHT22;30340;52.004;5.908;2023-02-04T08:49:35;8.70;88.10
42037;DHT22;30340;52.004;5.908;2023-02-04T08:52:01;8.70;88.10
42037;DHT22;30340;52.004;5.908;2023-02-04T08:54:28;8.80;88.00
42037;DHT22;30340;52.004;5.908;2023-02-04T08:56:54;8.80;88.70
42037;DHT22;30340;52.004;5.908;2023-02-04T08:59:19;8.80;88.10
42037;DHT22;30340;52.004;5.908;2023-02-04T09:01:46;8.90;88.10
42037;DHT22;30340;52.004;5.908;2023-02-04T09:04:14;8.90;87.90
42037;DHT22;30340;52.004;5.908;2023-02-04T09:06:39;9.00;87.90
42037;DHT22;30340;52.004;5.908;2023-02-04T09:09:05;9.00;87.90
42037;DHT22;30340;52.004;5.908;2023-02-04T09:11:30;9.10;87.90
42037;DHT22;30340;52.004;5.908;2023-02-04T09:13:56;9.20;87.80
42037;DHT22;30340;52.004;5.908;2023-02-04T09:16:22;9.20;87.60
42037;DHT22;30340;52.004;5.908;2023-02-04T09:18:47;9.30;87.60
42037;DHT22;30340;52.004;5.908;2023-02-04T09:21:13;9.30;87.50
42037;DHT22;30340;52.004;5.908;2023-02-04T09:23:38;9.40;87.40
42037;DHT22;30340;52.004;5.908;2023-02-04T09:26:04;9.40;87.20
42037;DHT22;30340;52.004;5.908;2023-02-04T09:28:31;9.40;87.30
42037;DHT22;30340;52.004;5.908;2023-02-04T09:30:57;9.40;87.40
42037;DHT22;30340;52.004;5.908;2023-02-04T09:33:22;9.50;87.40
42037;DHT22;30340;52.004;5.908;2023-02-04T09:35:48;9.50;87.30
42037;DHT22;30340;52.004;5.908;2023-02-04T09:38:14;9.50;87.30
42037;DHT22;30340;52.004;5.908;2023-02-04T09:40:42;9.50;87.30
42037;DHT22;30340;52.004;5.908;2023-02-04T09:43:12;9.60;87.30
42037;DHT22;30340;52.004;5.908;2023-02-04T09:45:39;9.60;87.30
42037;DHT22;30340;52.004;5.908;2023-02-04T09:48:05;9.60;87.20
42037;DHT22;30340;52.004;5.908;2023-02-04T09:50:31;9.60;87.10
42037;DHT22;30340;52.004;5.908;2023-02-04T09:53:00;9.60;87.10
42037;DHT22;30340;52.004;5.908;2023-02-04T09:55:33;9.60;87.30
42037;DHT22;30340;52.004;5.908;2023-02-04T09:57:59;9.70;87.30
42037;DHT22;30340;52.004;5.908;2023-02-04T10:00:27;9.70;87.20
42037;DHT22;30340;52.004;5.908;2023-02-04T10:02:55;9.80;87.20
42037;DHT22;30340;52.004;5.908;2023-02-04T10:05:27;9.90;86.90
42037;DHT22;30340;52.004;5.908;2023-02-04T10:07:53;9.90;86.80
42037;DHT22;30340;52.004;5.908;2023-02-04T10:10:22;9.90;86.80
42037;DHT22;30340;52.004;5.908;2023-02-04T10:12:51;10.00;86.90
42037;DHT22;30340;52.004;5.908;2023-02-04T10:15:18;10.00;86.80
42037;DHT22;30340;52.004;5.908;2023-02-04T10:17:50;10.00;86.60
42037;DHT22;30340;52.004;5.908;2023-02-04T10:20:18;10.10;86.60
42037;DHT22;30340;52.004;5.908;2023-02-04T10:22:44;10.20;86.60
42037;DHT22;30340;52.004;5.908;2023-02-04T10:25:12;10.20;86.30
42037;DHT22;30340;52.004;5.908;2023-02-04T10:27:58;10.20;86.50
42037;DHT22;30340;52.004;5.908;2023-02-04T10:30:38;10.30;86.50
42037;DHT22;30340;52.004;5.908;2023-02-04T10:33:22;10.30;86.40
42037;DHT22;30340;52.004;5.908;2023-02-04T10:35:53;10.20;86.20
42037;DHT22;30340;52.004;5.908;2023-02-04T10:38:19;10.20;86.50
42037;DHT22;30340;52.004;5.908;2023-02-04T10:40:45;10.20;86.50
42037;DHT22;30340;52.004;5.908;2023-02-04T10:43:25;10.30;86.70
42037;DHT22;30340;52.004;5.908;2023-02-04T10:45:58;10.40;86.70
42037;DHT22;30340;52.004;5.908;2023-02-04T10:48:25;10.50;86.50
42037;DHT22;30340;52.004;5.908;2023-02-04T10:50:52;10.60;86.30
42037;DHT22;30340;52.004;5.908;2023-02-04T10:53:21;10.70;86.20
42037;DHT22;30340;52.004;5.908;2023-02-04T10:56:15;10.70;86.30
42037;DHT22;30340;52.004;5.908;2023-02-04T10:58:42;10.70;85.90
42037;DHT22;30340;52.004;5.908;2023-02-04T11:01:12;10.80;85.80
42037;DHT22;30340;52.004;5.908;2023-02-04T11:03:39;10.90;85.50
42037;DHT22;30340;52.004;5.908;2023-02-04T11:06:14;11.00;85.30
42037;DHT22;30340;52.004;5.908;2023-02-04T11:08:42;11.00;85.10
42037;DHT22;30340;52.004;5.908;2023-02-04T11:11:16;11.00;85.60
42037;DHT22;30340;52.004;5.908;2023-02-04T11:16:31;11.10;85.00
42037;DHT22;30340;52.004;5.908;2023-02-04T11:19:05;11.20;85.00
42037;DHT22;30340;52.004;5.908;2023-02-04T11:24:04;11.20;84.80
42037;DHT22;30340;52.004;5.908;2023-02-04T11:26:33;11.20;84.80
42037;DHT22;30340;52.004;5.908;2023-02-04T11:36:28;11.30;84.50
42037;DHT22;30340;52.004;5.908;2023-02-04T11:38:53;11.40;84.40
42037;DHT22;30340;52.004;5.908;2023-02-04T11:41:29;11.40;84.30
42037;DHT22;30340;52.004;5.908;2023-02-04T11:43:56;11.50;84.20
42037;DHT22;30340;52.004;5.908;2023-02-04T11:46:22;11.50;84.00
42037;DHT22;30340;52.004;5.908;2023-02-04T11:48:54;11.50;83.70
42037;DHT22;30340;52.004;5.908;2023-02-04T11:51:25;11.40;83.60
42037;DHT22;30340;52.004;5.908;2023-02-04T11:53:52;11.50;84.00
42037;DHT22;30340;52.004;5.908;2023-02-04T11:56:19;11.50;83.90
42037;DHT22;30340;52.004;5.908;2023-02-04T11:58:46;11.60;83.90
42037;DHT22;30340;52.004;5.908;2023-02-04T12:01:19;11.60;83.60
42037;DHT22;30340;52.004;5.908;2023-02-04T12:03:47;11.60;83.50
42037;DHT22;30340;52.004;5.908;2023-02-04T12:06:28;11.60;83.20
42037;DHT22;30340;52.004;5.908;2023-02-04T12:09:07;11.60;83.30
42037;DHT22;30340;52.004;5.908;2023-02-04T12:11:33;11.70;83.30
42037;DHT22;30340;52.004;5.908;2023-02-04T12:14:17;11.70;83.10
42037;DHT22;30340;52.004;5.908;2023-02-04T12:16:46;11.60;83.20
42037;DHT22;30340;52.004;5.908;2023-02-04T12:19:13;11.50;83.30
42037;DHT22;30340;52.004;5.908;2023-02-04T12:21:39;11.40;83.40
42037;DHT22;30340;52.004;5.908;2023-02-04T12:24:05;11.50;83.60
42037;DHT22;30340;52.004;5.908;2023-02-04T12:26:30;11.50;83.50
42037;DHT22;30340;52.004;5.908;2023-02-04T12:28:56;11.40;83.50
42037;DHT22;30340;52.004;5.908;2023-02-04T12:31:21;11.40;83.50
42037;DHT22;30340;52.004;5.908;2023-02-04T12:33:47;11.40;83.50
42037;DHT22;30340;52.004;5.908;2023-02-04T12:36:13;11.40;83.50
42037;DHT22;30340;52.004;5.908;2023-02-04T12:38:38;11.30;83.40
42037;DHT22;30340;52.004;5.908;2023-02-04T12:41:04;11.30;83.50
42037;DHT22;30340;52.004;5.908;2023-02-04T12:43:30;11.40;83.60
42037;DHT22;30340;52.004;5.908;2023-02-04T12:45:55;11.40;83.60
42037;DHT22;30340;52.004;5.908;2023-02-04T12:48:21;11.50;83.40
42037;DHT22;30340;52.004;5.908;2023-02-04T12:50:47;11.50;83.40
42037;DHT22;30340;52.004;5.908;2023-02-04T12:53:12;11.70;83.30
42037;DHT22;30340;52.004;5.908;2023-02-04T12:55:38;11.80;82.80
42037;DHT22;30340;52.004;5.908;2023-02-04T12:58:04;11.90;82.60
42037;DHT22;30340;52.004;5.908;2023-02-04T13:00:29;12.10;82.50
42037;DHT22;30340;52.004;5.908;2023-02-04T13:02:55;12.70;80.90
42037;DHT22;30340;52.004;5.908;2023-02-04T13:05:23;12.90;79.80
42037;DHT22;30340;52.004;5.908;2023-02-04T13:07:49;13.00;79.70
42037;DHT22;30340;52.004;5.908;2023-02-04T13:10:14;13.70;78.70
42037;DHT22;30340;52.004;5.908;2023-02-04T13:12:40;14.10;77.40
42037;DHT22;30340;52.004;5.908;2023-02-04T13:15:07;13.90;77.30
42037;DHT22;30340;52.004;5.908;2023-02-04T13:17:32;13.70;77.90
42037;DHT22;30340;52.004;5.908;2023-02-04T13:19:58;13.50;78.10
42037;DHT22;30340;52.004;5.908;2023-02-04T13:22:25;13.40;78.60
42037;DHT22;30340;52.004;5.908;2023-02-04T13:24:51;13.10;79.10
42037;DHT22;30340;52.004;5.908;2023-02-04T13:27:16;12.90;79.70
42037;DHT22;30340;52.004;5.908;2023-02-04T13:29:42;12.70;80.30
42037;DHT22;30340;52.004;5.908;2023-02-04T13:32:09;12.50;80.80
42037;DHT22;30340;52.004;5.908;2023-02-04T13:34:34;12.40;81.20
42037;DHT22;30340;52.004;5.908;2023-02-04T13:37:00;12.30;81.50
42037;DHT22;30340;52.004;5.908;2023-02-04T13:39:25;12.30;81.80
42037;DHT22;30340;52.004;5.908;2023-02-04T13:41:51;12.30;82.00
42037;DHT22;30340;52.004;5.908;2023-02-04T13:44:16;12.40;81.90
42037;DHT22;30340;52.004;5.908;2023-02-04T13:46:42;12.60;81.60
42037;DHT22;30340;52.004;5.908;2023-02-04T13:49:07;12.70;81.00
42037;DHT22;30340;52.004;5.908;2023-02-04T13:51:33;12.70;80.90
42037;DHT22;30340;52.004;5.908;2023-02-04T13:53:59;12.70;80.90
42037;DHT22;30340;52.004;5.908;2023-02-04T13:56:25;12.70;80.60
42037;DHT22;30340;52.004;5.908;2023-02-04T13:58:51;12.70;80.50
42037;DHT22;30340;52.004;5.908;2023-02-04T14:01:17;12.70;80.30
42037;DHT22;30340;52.004;5.908;2023-02-04T14:03:43;12.60;80.30
42037;DHT22;30340;52.004;5.908;2023-02-04T14:06:09;12.60;80.60
42037;DHT22;30340;52.004;5.908;2023-02-04T14:08:35;12.60;80.80
42037;DHT22;30340;52.004;5.908;2023-02-04T14:11:01;12.70;80.80
42037;DHT22;30340;52.004;5.908;2023-02-04T14:13:26;12.70;80.80
42037;DHT22;30340;52.004;5.908;2023-02-04T14:15:52;12.80;80.50
42037;DHT22;30340;52.004;5.908;2023-02-04T14:18:18;12.80;79.80
42037;DHT22;30340;52.004;5.908;2023-02-04T14:20:44;12.80;79.90
42037;DHT22;30340;52.004;5.908;2023-02-04T14:23:10;12.90;79.90
42037;DHT22;30340;52.004;5.908;2023-02-04T14:25:38;12.90;79.70
42037;DHT22;30340;52.004;5.908;2023-02-04T14:28:04;12.80;79.60
42037;DHT22;30340;52.004;5.908;2023-02-04T14:30:30;12.80;79.70
42037;DHT22;30340;52.004;5.908;2023-02-04T14:32:56;12.70;79.80
42037;DHT22;30340;52.004;5.908;2023-02-04T14:35:23;12.60;79.90
42037;DHT22;30340;52.004;5.908;2023-02-04T14:37:49;12.50;79.90
42037;DHT22;30340;52.004;5.908;2023-02-04T14:40:16;12.50;80.00
42037;DHT22;30340;52.004;5.908;2023-02-04T14:42:43;12.50;80.10
42037;DHT22;30340;52.004;5.908;2023-02-04T14:45:10;12.40;79.80
42037;DHT22;30340;52.004;5.908;2023-02-04T14:47:37;12.40;79.70
42037;DHT22;30340;52.004;5.908;2023-02-04T14:50:04;12.40;80.00
42037;DHT22;30340;52.004;5.908;2023-02-04T14:52:30;12.40;79.90
42037;DHT22;30340;52.004;5.908;2023-02-04T14:54:56;12.30;79.90
42037;DHT22;30340;52.004;5.908;2023-02-04T14:57:21;12.30;80.00
42037;DHT22;30340;52.004;5.908;2023-02-04T14:59:47;12.30;80.00
42037;DHT22;30340;52.004;5.908;2023-02-04T15:02:13;12.30;80.00
42037;DHT22;30340;52.004;5.908;2023-02-04T15:04:42;12.30;80.10
42037;DHT22;30340;52.004;5.908;2023-02-04T15:07:09;12.30;80.10
42037;DHT22;30340;52.004;5.908;2023-02-04T15:09:34;12.20;80.00
42037;DHT22;30340;52.004;5.908;2023-02-04T15:12:00;12.20;80.20
42037;DHT22;30340;52.004;5.908;2023-02-04T15:14:25;12.20;80.30
42037;DHT22;30340;52.004;5.908;2023-02-04T15:16:51;12.20;80.50
42037;DHT22;30340;52.004;5.908;2023-02-04T15:19:17;12.10;80.50
42037;DHT22;30340;52.004;5.908;2023-02-04T15:21:43;12.10;80.60
42037;DHT22;30340;52.004;5.908;2023-02-04T15:24:09;12.00;80.70
42037;DHT22;30340;52.004;5.908;2023-02-04T15:26:35;12.00;80.90
42037;DHT22;30340;52.004;5.908;2023-02-04T15:29:01;12.00;80.90
42037;DHT22;30340;52.004;5.908;2023-02-04T15:31:27;11.90;80.80
42037;DHT22;30340;52.004;5.908;2023-02-04T15:33:52;12.00;80.90
42037;DHT22;30340;52.004;5.908;2023-02-04T15:36:18;12.00;81.00
42037;DHT22;30340;52.004;5.908;2023-02-04T15:38:44;12.00;81.00
42037;DHT22;30340;52.004;5.908;2023-02-04T15:41:10;11.90;81.00
42037;DHT22;30340;52.004;5.908;2023-02-04T15:43:36;11.90;81.00
42037;DHT22;30340;52.004;5.908;2023-02-04T15:46:01;11.80;81.00
42037;DHT22;30340;52.004;5.908;2023-02-04T15:48:27;11.80;81.20
42037;DHT22;30340;52.004;5.908;2023-02-04T15:50:53;11.80;81.20